Aérodrome :
LOGIN :

S'inscrire | Disclaimer

   EN    FR    IT 

 










Légende :    VFR   VFR Marginal   IFR   IFR Intensif   IFR Très Intensif
Visi : 
Plafond : 
>= 8 km
>= 3000ft
5 à 8 km
1000 à 3000 ft
1500m à 5 km
500 à 1000 ft
800 à 1500m
200 à 500 ft
< 800m
< 200 ft
Symboles :   Orages  Brouillard  Fortes neiges  Fortes précipitations  Vent > 20 kt
SIGMETs :   Divers  Orages  Givrage  Turbulence  Onde Orograph.  Cendres Volcan.







- Altitude de l'aérodrome : 157 ft
- Code IATA : SXF


EDDB - Berlin Schönefeld

DERNIER METAR :
  • 212350Z 16004KT 120V190 9999 BKN007 M00/M01 Q1017 TEMPO BKN010

METARs EXPIRÉS :
  • 212320Z 17005KT 140V200 9000 BKN007 M00/M01 Q1017 TEMPO BKN010
  • 212250Z 17006KT 140V200 9000 BKN007 00/M01 Q1018 TEMPO BKN010
  • 212220Z 18004KT 150V210 8000 FEW005 BKN011 00/M00 Q1018 TEMPO BKN005
  • 212150Z 19005KT 8000 FEW005 BKN012 00/M00 Q1018 TEMPO BKN005
  • 212120Z 21005KT 8000 FEW005 BKN011 00/M01 Q1018 NOSIG

TAF TAF EDDB
Valide du 22 à 00h jusqu'au 23 à 00h UTC


212300Z 2200/2224 13009KT 6000 BKN010
TEMPO 2200/2206 3000 BR BKN004
PROB30
TEMPO 2202/2206 SCT010
BECMG 2206/2209 SCT010
BECMG 2213/2216 OVC010
TEMPO 2215/2224 2500 -SN BKN005
Pas de NOTAMs connus pour ce terrain.



MET'MAP, la Météo Aéronautique d'un coup d'oeil ! - Copyright ORBIFLY Décembre 2007 - Disclaimer

ORBIFLY MET'MAP TEAM :

Programmation & Développement : Alexandra Zaïnal
Conception & Développement : Baudouin d'Aumeries
Co-Programmation & Développement : Marc-Olivier Méhu
Soutien technique & logistique : Manuel Goepfert

Contact : metmap@orbifly.com




SOURCES & CREDITS :

   NOAA